• Join FlightAware (Why Join?)
  • Login
  • US Flag 
09:38PM EDT


 

Airport Tracker/Info


-or-


 

Live Flight TrackerFlight Track Log ✈ SWA303 ✈ 22-Apr-2013 ✈ KDEN - KIAD

Flight Track Log - Related Links

Times and Time Zones

All times are in EDT time to prevent confusion due to time zone crossing. See the SWA303 flight status page for this flight to view local times or setup timezone preferences in your user account.

Time Position Orientation Groundspeed Altitude Reporting Facility
EDT Latitude Longitude Course Direction KTS MPH feet Rate Location/Type
03:04PM 39.9000 -104.6667 37° Northeast 166 191 7,100  Level Denver TRACON
03:05PM 39.9500 -104.6167 37° Northeast 230 265 9,300 1,500 Climbing Denver TRACON
03:06PM 39.9500 -104.5000 90° East 311 358 10,100 1,440 Climbing Denver TRACON
03:07PM 39.9500 -104.3833 90° East 351 404 12,200 2,640 Climbing Denver TRACON
03:08PM 39.9344 -104.3083 105° East 357 411 14,200 3,000 Climbing Denver Center
03:09PM 39.9089 -104.1778 104° East 376 433 16,900 2,580 Climbing Denver Center
03:10PM 39.8881 -104.0367 101° East 397 457 19,600 2,340 Climbing Denver Center
03:11PM 39.8725 -103.8708 97° East 432 497 21,800 2,160 Climbing Denver Center
03:12PM 39.8833 -103.7300 84° East 431 496 24,100 1,860 Climbing Denver Center
03:13PM 39.9056 -103.5372 81° East 459 528 25,700 1,500 Climbing Denver Center
03:14PM 39.9261 -103.3564 82° East 501 577 27,200 1,440 Climbing Denver Center
03:15PM 39.9475 -103.1669 82° East 521 600 28,700 1,440 Climbing Denver Center
03:16PM 39.9606 -102.9675 85° East 545 627 30,200 1,500 Climbing Denver Center
03:17PM 39.9686 -102.7628 87° East 560 644 31,800 1,800 Climbing Denver Center
03:18PM 39.9786 -102.5567 86° East 556 640 34,000 1,980 Climbing Denver Center
03:19PM 39.9881 -102.3692 86° East 546 628 35,900 1,560 Climbing Denver Center
03:20PM 39.9989 -102.1553 86° East 535 616 37,200 1,320 Climbing Denver Center
03:21PM 40.0053 -101.9689 87° East 537 618 38,900 780 Climbing Denver Center
03:22PM 40.0128 -101.7317 88° East 518 596 39,000  Climbing Denver Center
03:23PM 40.0219 -101.5269 87° East 511 588 39,000  Level Denver Center
03:25PM 40.0267 -101.3492 88° East 513 590 39,000  Level Denver Center
03:26PM 40.0336 -101.1119 88° East 513 590 39,000  Level Denver Center
03:27PM 40.0394 -100.9361 87° East 512 589 39,000  Level Denver Center
03:28PM 40.0450 -100.7303 88° East 510 587 39,000  Level Denver Center
03:29PM 40.0508 -100.5558 87° East 507 583 39,000  Level Denver Center
03:30PM 40.0567 -100.3492 88° East 513 590 39,000  Level Denver Center
03:31PM 40.0600 -100.2014 88° East 514 592 39,000  Level Denver Center
03:32PM 40.0653 -99.9644 88° East 513 590 39,000  Level Denver Center
03:33PM 40.0694 -99.7722 88° East 516 594 39,000  Level Denver Center
03:34PM 40.0733 -99.5872 88° East 513 590 39,000  Level Denver Center
03:35PM 40.0767 -99.4044 89° East 507 583 39,000  Level Denver Center
03:36PM 40.0794 -99.2211 89° East 507 583 39,000  Level Denver Center
03:37PM 40.0836 -99.0378 88° East 507 583 39,000  Level Denver Center
03:38PM 40.0853 -98.8531 89° East 510 587 39,000  Level Denver Center
03:39PM 40.0867 -98.6672 89° East 512 589 39,000  Level Minneapolis Center
03:40PM 40.0892 -98.4800 89° East 516 594 39,000  Level Minneapolis Center
03:41PM 40.0914 -98.2933 89° East 516 594 39,000  Level Minneapolis Center
03:42PM 40.0922 -98.0683 90° East 518 596 39,000  Level Minneapolis Center
03:43PM 40.0939 -97.8833 89° East 514 592 39,000  Level Minneapolis Center
03:44PM 40.0939 -97.6986 90° East 512 589 39,000  Level Minneapolis Center
03:45PM 40.0950 -97.5142 89° East 510 587 39,000  Level Minneapolis Center
03:46PM 40.0942 -97.3294 90° East 509 586 39,000  Level Minneapolis Center
03:47PM 40.0944 -97.1547 90° East 507 583 39,000  Level Minneapolis Center
03:48PM 40.0936 -96.9708 90° East 508 585 39,000  Level Minneapolis Center
03:49PM 40.0933 -96.7483 90° East 511 588 39,000  Level Minneapolis Center
03:50PM 40.0917 -96.5636 91° East 510 587 39,000  Level Minneapolis Center
03:51PM 40.0908 -96.3781 90° East 512 589 39,000  Level Minneapolis Center
03:52PM 40.0883 -96.1936 91° East 511 588 39,000  Level Minneapolis Center
03:53PM 40.0858 -96.0103 91° East 509 586 39,000  Level Minneapolis Center
03:54PM 40.0842 -95.8200 91° East 519 597 39,000  Level Minneapolis Center
03:55PM 40.0819 -95.6347 91° East 516 594 39,000  Level Minneapolis Center
03:56PM 40.0800 -95.4528 91° East 508 585 39,000  Level Minneapolis Center
03:57PM 40.0753 -95.2356 92° East 504 580 39,000  Level Minneapolis Center
03:58PM 40.0697 -95.0403 92° East 499 574 39,000  Level Kansas City Center
04:00PM 40.0658 -94.8678 92° East 496 571 39,000  Level Kansas City Center
04:01PM 40.0628 -94.6950 91° East 496 571 39,000  Level Kansas City Center
04:02PM 40.0581 -94.4969 92° East 490 564 39,000  Level Kansas City Center
04:03PM 40.0536 -94.3239 92° East 495 570 39,000  Level Kansas City Center
04:04PM 40.0481 -94.1233 92° East 495 570 39,000  Level Kansas City Center
04:05PM 40.0425 -93.9569 92° East 504 580 39,000  Level Kansas City Center
04:06PM 40.0372 -93.7761 92° East 504 580 39,000  Level Kansas City Center
04:07PM 40.0297 -93.5642 93° East 494 568 39,000  Level Kansas City Center
04:08PM 40.0253 -93.3853 92° East 497 572 39,000  Level Kansas City Center
04:09PM 40.0192 -93.2067 93° East 499 574 39,000  Level Kansas City Center
04:10PM 40.0122 -93.0286 93° East 497 572 39,000  Level Kansas City Center
04:11PM 40.0047 -92.8161 93° East 498 573 39,000  Level Kansas City Center
04:12PM 39.9986 -92.6397 93° East 500 575 39,000  Level Kansas City Center
04:13PM 39.9914 -92.4636 93° East 498 573 39,000  Level Kansas City Center
04:14PM 39.9842 -92.2889 93° East 495 570 39,000  Level Kansas City Center
04:15PM 39.9767 -92.1139 93° East 493 567 39,000  Level Kansas City Center
04:16PM 39.9667 -91.9019 93° East 494 568 39,000  Level Kansas City Center
04:17PM 39.9564 -91.7283 94° East 489 563 39,000  Level Kansas City Center
04:18PM 39.9481 -91.5525 93° East 490 564 39,000  Level Kansas City Center
04:19PM 39.9392 -91.3775 94° East 489 563 39,000  Level Kansas City Center
04:20PM 39.9297 -91.2019 94° East 490 564 39,000  Level Kansas City Center
04:21PM 39.9197 -90.9928 94° East 488 562 39,000  Level Kansas City Center
04:22PM 39.9100 -90.8308 94° East 489 563 39,000  Level Kansas City Center
04:23PM 39.9003 -90.6556 94° East 489 563 39,000  Level Kansas City Center
04:24PM 39.8878 -90.4442 94° East 490 564 39,000  Level Kansas City Center
04:25PM 39.8775 -90.2683 94° East 490 564 39,000  Level Kansas City Center
04:26PM 39.8669 -90.0933 94° East 490 564 39,000  Level Kansas City Center
04:27PM 39.8547 -89.9172 95° East 490 564 39,000  Level Kansas City Center
04:28PM 39.8436 -89.7439 95° East 488 562 39,000  Level Kansas City Center
04:29PM 39.8397 -89.5689 92° East 485 558 39,000  Level Kansas City Center
04:30PM 39.8408 -89.3594 90° East 483 556 39,000  Level Kansas City Center
04:31PM 39.8414 -89.1853 90° East 483 556 39,000  Level Kansas City Center
04:33PM 39.8428 -89.0114 89° East 483 556 39,000  Level Kansas City Center
04:34PM 39.8422 -88.8378 90° East 483 556 39,000  Level Kansas City Center
04:35PM 39.8425 -88.6644 90° East 482 555 39,000  Level Kansas City Center
04:36PM 39.8419 -88.4569 90° East 481 554 39,000  Level Kansas City Center
04:37PM 39.8425 -88.2814 90° East 484 557 39,000  Level Kansas City Center
04:38PM 39.8414 -88.0953 90° East 485 558 39,000  Level Kansas City Center
04:38PM 39.8394 -88.0636 95° East 481 554 39,000  Level Indianapolis Center
04:39PM 39.8372 -87.8528 91° East 483 556 39,000  Level Indianapolis Center
04:40PM 39.8358 -87.6772 91° East 483 556 39,000  Level Indianapolis Center
04:41PM 39.8333 -87.5025 91° East 483 556 39,000  Level Indianapolis Center
04:42PM 39.8308 -87.3269 91° East 483 556 39,000  Level Indianapolis Center
04:43PM 39.8289 -87.1519 91° East 481 554 39,000  Level Indianapolis Center
04:44PM 39.8250 -86.9772 92° East 481 554 39,000  Level Indianapolis Center
04:45PM 39.8231 -86.8031 91° East 480 552 39,000  Level Indianapolis Center
04:46PM 39.8192 -86.6289 92° East 479 551 39,000  Level Indianapolis Center
04:47PM 39.8150 -86.4203 91° East 478 550 39,000  Level Indianapolis Center
04:48PM 39.8203 -86.2475 88° East 478 550 39,000  Level Indianapolis Center
04:49PM 39.8317 -86.0758 85° East 475 547 39,000  Level Indianapolis Center
04:50PM 39.8417 -85.9158 85° East 475 547 39,000  Level Indianapolis Center
04:51PM 39.8489 -85.7422 87° East 476 548 39,000  Level Indianapolis Center
04:52PM 39.8608 -85.5394 86° East 477 549 39,000  Level Indianapolis Center
04:54PM 39.8708 -85.3656 86° East 478 550 39,000  Level Indianapolis Center
04:55PM 39.8792 -85.1911 86° East 479 551 39,000  Level Indianapolis Center
04:56PM 39.8886 -85.0158 86° East 480 552 39,000  Level Indianapolis Center
04:57PM 39.8967 -84.8428 86° East 478 550 39,000  Level Indianapolis Center
04:58PM 39.9039 -84.6694 87° East 476 548 39,000  Level Indianapolis Center
04:59PM 39.9122 -84.4983 86° East 473 544 39,000  Level Indianapolis Center
05:00PM 39.9208 -84.3258 86° East 472 543 39,000  Level Indianapolis Center
05:01PM 39.9281 -84.1242 87° East 473 544 39,000  Level Indianapolis Center
05:02PM 39.9358 -83.9511 87° East 473 544 39,000  Level Indianapolis Center
05:03PM 39.9419 -83.7778 87° East 475 547 39,000  Level Indianapolis Center
05:04PM 39.9472 -83.6033 88° East 472 543 39,000  Level Indianapolis Center
05:05PM 39.9553 -83.4261 87° East 472 543 39,000  Level Indianapolis Center
05:06PM 39.9617 -83.2511 87° East 474 545 39,000  Level Indianapolis Center
05:07PM 39.9656 -83.0786 88° East 470 541 39,000  Level Indianapolis Center
05:08PM 39.9694 -82.9075 88° East 468 539 39,000  Level Indianapolis Center
05:09PM 39.9753 -82.7361 87° East 469 540 39,000  Level Indianapolis Center
05:10PM 39.9806 -82.5661 88° East 468 539 39,000  Level Indianapolis Center
05:11PM 39.9856 -82.3961 88° East 467 537 39,000  Level Indianapolis Center
05:12PM 39.9903 -82.1958 88° East 471 542 39,000  Level Indianapolis Center
05:13PM 39.9944 -82.0244 88° East 469 540 39,000  Level Indianapolis Center
05:14PM 39.9978 -81.8511 89° East 474 545 39,000  Level Indianapolis Center
05:15PM 40.0014 -81.6908 88° East 476 548 39,000  Level Indianapolis Center
05:16PM 39.9908 -81.4908 94° East 473 544 39,000  Level Indianapolis Center
05:17PM 39.9589 -81.3506 107° East 466 536 39,000  Level Indianapolis Center
05:18PM 39.9203 -81.1892 107° East 465 535 39,000  Level Indianapolis Center
05:19PM 39.8889 -81.0539 107° East 462 532 39,000  Level Cleveland Center
05:20PM 39.8500 -80.8967 108° East 462 532 39,000  Level Cleveland Center
05:21PM 39.8106 -80.7372 108° East 462 532 39,000  Level Cleveland Center
05:22PM 39.7711 -80.5803 108° East 462 532 39,000  Level Cleveland Center
05:23PM 39.7314 -80.4211 108° East 462 532 39,000 -360 Level Cleveland Center
05:24PM 39.6708 -80.2003 110° East 463 533 38,200 -1,320 Descending Indianapolis Center
05:25PM 39.6314 -80.0447 108° East 456 525 35,700 -2,820 Descending Indianapolis Center
05:26PM 39.5933 -79.8897 108° East 451 519 32,700 -2,940 Descending Washington Center
05:27PM 39.5550 -79.7339 108° East 451 519 30,000 -2,520 Descending Washington Center
05:28PM 39.5142 -79.5836 109° East 451 519 27,700 -1,800 Descending Washington Center
05:29PM 39.4836 -79.4367 105° East 438 504 26,400 -1,200 Descending Washington Center
05:30PM 39.4569 -79.2900 103° East 427 491 25,400 -1,500 Descending Washington Center
05:31PM 39.4264 -79.1275 104° East 422 486 23,500 -2,040 Descending Washington Center
05:32PM 39.3992 -78.9892 104° East 412 474 21,400 -2,040 Descending Washington Center
05:33PM 39.3758 -78.8536 103° East 395 455 19,500 -1,800 Descending Washington Center
05:34PM 39.3522 -78.7211 103° East 388 447 17,800 -1,740 Descending Washington Center
05:35PM 39.3303 -78.5942 103° East 372 428 16,100 -1,980 Descending Washington Center
05:36PM 39.3064 -78.4669 104° East 367 422 13,900 -2,040 Descending Washington Center
05:37PM 39.2736 -78.3503 110° East 355 409 12,100 -1,920 Descending Washington Center
05:38PM 39.1981 -78.2886 148° Southeast 319 367 10,100 -1,140 Descending Washington Center
05:39PM 39.1219 -78.2322 150° Southeast 312 359 9,900 -480 Descending Washington Center
05:40PM 39.0544 -78.1792 149° Southeast 301 346 9,200 -1,080 Descending Washington Center
05:41PM 38.9889 -78.1261 148° Southeast 285 328 7,800 -1,380 Descending Washington Center
05:42PM 38.9272 -78.0786 149° Southeast 279 321 6,500 -960 Descending Washington Center
05:43PM 38.8656 -78.0339 151° Southeast 266 306 5,900 -840 Descending Washington Center
05:44PM 38.8019 -77.9864 150° Southeast 261 300 4,900 -540 Descending Washington Center
05:45PM 38.7511 -77.9289 139° Southeast 261 300 4,900 -120 Level Washington Center
05:48PM 38.7000 -77.7667 112° Southeast 220 253 4,700 -300 Descending Potomac TRACON
05:49PM 38.6833 -77.6833 104° East 220 253 4,000 -360 Descending Potomac TRACON
05:50PM 38.6833 -77.6167 90° East 222 255 4,000 -420 Level Potomac TRACON
05:51PM 38.7000 -77.5333 76° East 218 251 3,200 -480 Descending Potomac TRACON
05:52PM 38.7500 -77.4833 38° Northeast 218 251 3,000 -180 Descending Potomac TRACON
05:53PM 38.8000 -77.4667 15° North 194 223 2,900 -540 Descending Potomac TRACON
05:54PM 38.8500 -77.4667 360° North 182 209 2,000 -900 Descending Potomac TRACON
05:55PM 38.9000 -77.4667 360° North 145 167 1,100 -900 Descending Potomac TRACON